Balkasino, Kazakhstan
Current Conditions -  °F | °C
As of 9:30 AM on Thursday 23 Oct 2014 (Local Time) from UACK Reporting Station
Overcast Overcast  
Wind Chill: 29°   Ceiling: 3600
Heat Index: 36°   Visibility: 6mi
Dew Point: 34°   Wind: 9mph
Humidity: 93%   Direction: 180°S
Pressure: 29.71"   Gusts: NA
Location:  52.53°N, 68.75°E
Report Text: UACK 230330Z 18004MPS 9999 OVC036 02/01 Q1006 NOSIG RMKQFE731/0974
Loading
Personal Weather Stations






























Interactive Weather Map
Tropical Storm Tracking
New forecast layout! Learn more

10-Day Weather Forecast

Advertisements
Track Severe Weather on mobile